Halsey, Nebraska
Current Conditions -  °F | °C
As of 8:55 AM on Wednesday 22 Oct 2014 (Local Time) from KTIF Reporting Station
Overcast Overcast  
Wind Chill: 57°   Ceiling: 6500
Heat Index: 57°   Visibility: 10mi
Dew Point: 53°   Wind: 8mph
Humidity: 84%   Direction: 260°W
Pressure: 29.98"   Gusts: NA
Location:  41.9°N, 100.27°W
Report Text: KTIF 221355Z AUTO 26007KT 10SM BKN065 OVC085 14/11 A2998 RMK AO2 T01400114
Loading
Personal Weather Stations






























Interactive Weather Map
Tropical Storm Tracking
New forecast layout! Learn more

10-Day Weather Forecast

Advertisements
Track Severe Weather on mobile